Time;durP1;ratioP1;P1;durP2;ratioP2;P2;SDS_P1;SDS_P2;PMS_P1;PMS_P2;Temp;Humidity;BMP_temperature;BMP_pressure;BME280_temperature;BME280_humidity;BME280_pressure;Samples;Min_cycle;Max_cycle;Signal;HPM_P1;HPM_P2
2022/03/10 00:00:44;;;;;;;44.58;23.23;;;;;;;0.40;76.01;102407.38;5093474;28;20449;-77
2022/03/10 00:03:10;;;;;;;46.22;22.63;;;;;;;0.33;76.08;102404.06;5094306;28;20444;-76
2022/03/10 00:05:35;;;;;;;44.53;23.73;;;;;;;0.28;75.91;102403.28;5094341;28;20028;-76
2022/03/10 00:08:01;;;;;;;44.40;23.35;;;;;;;0.26;76.21;102406.84;5093612;28;20210;-76
2022/03/10 00:10:26;;;;;;;48.17;22.55;;;;;;;0.21;76.34;102401.72;5093059;28;20031;-77
2022/03/10 00:12:53;;;;;;;46.58;24.90;;;;;;;0.18;76.82;102409.66;5093189;28;20024;-77
2022/03/10 00:15:23;;;;;;;46.03;24.70;;;;;;;0.14;77.09;102410.59;5093069;28;20115;-75
2022/03/10 00:17:49;;;;;;;46.40;25.40;;;;;;;0.12;77.19;102404.53;5094009;28;20176;-76
2022/03/10 00:20:14;;;;;;;45.97;23.90;;;;;;;0.10;77.42;102404.56;5093549;28;20145;-76
2022/03/10 00:22:46;;;;;;;43.47;23.42;;;;;;;0.05;77.41;102395.09;5093352;28;20197;-76
2022/03/10 00:25:13;;;;;;;43.28;24.70;;;;;;;0.03;77.27;102396.88;5075230;28;20028;-75
2022/03/10 00:27:39;;;;;;;45.15;23.60;;;;;;;-0.02;77.68;102395.22;5093345;28;20036;-76
2022/03/10 00:30:05;;;;;;;50.45;25.02;;;;;;;-0.06;77.72;102398.81;5092782;28;20043;-75
2022/03/10 00:32:30;;;;;;;45.92;23.95;;;;;;;-0.10;77.80;102396.28;5092816;28;20048;-76
2022/03/10 00:34:56;;;;;;;41.45;22.17;;;;;;;-0.16;78.13;102396.38;5092965;28;20081;-76
2022/03/10 00:37:21;;;;;;;43.65;23.13;;;;;;;-0.22;77.96;102389.56;5093302;28;20169;-76
2022/03/10 00:39:47;;;;;;;50.55;25.90;;;;;;;-0.26;78.65;102385.28;5092805;28;20040;-76
2022/03/10 00:42:12;;;;;;;48.17;24.13;;;;;;;-0.29;79.07;102395.81;5092689;28;20061;-76
2022/03/10 00:44:37;;;;;;;43.10;23.15;;;;;;;-0.32;78.61;102390.63;5093101;28;20082;-76
2022/03/10 00:47:03;;;;;;;41.42;22.75;;;;;;;-0.37;78.41;102391.56;5092371;28;20503;-74
2022/03/10 00:49:28;;;;;;;44.25;23.48;;;;;;;-0.41;78.15;102389.91;5093000;28;20041;-76
2022/03/10 00:51:54;;;;;;;42.00;23.88;;;;;;;-0.46;78.51;102389.16;5092440;28;20058;-76
2022/03/10 00:54:19;;;;;;;44.13;22.63;;;;;;;-0.48;78.62;102390.91;5074461;28;20470;-76
2022/03/10 00:56:44;;;;;;;44.13;23.63;;;;;;;-0.50;78.56;102391.84;5074226;28;20064;-75
2022/03/10 00:59:10;;;;;;;46.20;22.92;;;;;;;-0.54;79.01;102385.81;5074524;28;20032;-75
2022/03/10 01:01:35;;;;;;;53.25;25.65;;;;;;;-0.58;79.34;102397.25;5092872;28;20468;-76
2022/03/10 01:04:01;;;;;;;41.78;22.15;;;;;;;-0.63;79.44;102386.84;5093136;28;20478;-75
2022/03/10 01:06:26;;;;;;;43.78;23.15;;;;;;;-0.67;79.52;102387.81;5092542;28;20397;-76
2022/03/10 01:08:51;;;;;;;48.17;24.70;;;;;;;-0.70;79.46;102390.47;5092609;28;20032;-75
2022/03/10 01:11:17;;;;;;;55.58;25.17;;;;;;;-0.72;80.54;102394.84;5057624;28;20391;-75
2022/03/10 01:13:42;;;;;;;48.38;24.90;;;;;;;-0.75;80.33;102387.06;5074421;28;20429;-76
2022/03/10 01:16:07;;;;;;;50.00;24.60;;;;;;;-0.79;80.59;102386.28;5092425;28;20035;-76
2022/03/10 01:18:33;;;;;;;40.75;22.90;;;;;;;-0.80;80.18;102388.94;5092610;28;20035;-76
2022/03/10 01:20:58;;;;;;;45.70;24.70;;;;;;;-0.82;80.29;102385.47;5092478;28;20121;-76
2022/03/10 01:23:24;;;;;;;49.90;23.80;;;;;;;-0.86;80.77;102383.81;5092445;28;20419;-76
2022/03/10 01:25:49;;;;;;;43.55;23.20;;;;;;;-0.87;80.93;102385.53;5092001;28;20032;-76
2022/03/10 01:28:15;;;;;;;44.20;24.55;;;;;;;-0.91;81.58;102382.13;5091849;28;20475;-75
2022/03/10 01:30:42;;;;;;;43.85;24.48;;;;;;;-0.94;80.97;102381.31;5092070;28;20036;-76
2022/03/10 01:33:08;;;;;;;44.13;23.00;;;;;;;-0.99;81.02;102378.78;5091479;28;20429;-75
2022/03/10 01:35:34;;;;;;;42.10;23.55;;;;;;;-1.01;81.07;102387.56;5092309;28;20032;-76
2022/03/10 01:37:59;;;;;;;45.38;24.30;;;;;;;-1.05;81.08;102375.44;5094446;28;20031;-76
2022/03/10 01:40:25;;;;;;;48.13;23.55;;;;;;;-1.08;81.05;102385.03;5076674;28;20363;-75
2022/03/10 01:42:50;;;;;;;50.90;25.02;;;;;;;-1.11;81.71;102376.38;5092272;28;20364;-75
2022/03/10 01:45:16;;;;;;;48.85;24.75;;;;;;;-1.15;82.25;102377.31;5091889;28;20536;-75
2022/03/10 01:47:42;;;;;;;50.25;26.15;;;;;;;-1.18;82.14;102374.75;5091690;28;20024;-75
2022/03/10 01:50:10;;;;;;;44.17;23.77;;;;;;;-1.22;81.88;102373.97;5091806;28;20436;-75
2022/03/10 01:52:36;;;;;;;48.28;24.08;;;;;;;-1.23;82.09;102379.22;5091872;28;20057;-76
2022/03/10 01:55:02;;;;;;;47.28;25.77;;;;;;;-1.26;82.41;102372.28;5091562;28;20153;-75
2022/03/10 01:57:28;;;;;;;46.33;23.90;;;;;;;-1.28;82.61;102376.69;5091707;28;20041;-76
2022/03/10 01:59:53;;;;;;;45.40;24.33;;;;;;;-1.31;82.18;102380.19;5091518;28;20187;-76
2022/03/10 02:02:19;;;;;;;41.10;23.55;;;;;;;-1.33;82.33;102376.75;5072967;28;20040;-76
2022/03/10 02:04:44;;;;;;;44.03;24.63;;;;;;;-1.37;82.45;102382.03;5091480;28;20132;-76
2022/03/10 02:10:16;;;;;;;49.92;25.08;;;;;;;-1.38;82.49;102382.94;5091300;28;20063;-76
2022/03/10 02:12:40;;;;;;;47.78;24.42;;;;;;;-1.44;83.06;102386.50;5091502;28;20039;-76
2022/03/10 02:18:06;;;;;;;48.38;23.92;;;;;;;-1.49;82.63;102391.78;5091376;28;20192;-75
2022/03/10 02:20:32;;;;;;;45.90;24.33;;;;;;;-1.53;82.81;102387.50;5090777;28;20047;-77
2022/03/10 02:22:58;;;;;;;50.22;23.88;;;;;;;-1.57;82.68;102385.81;5090891;28;20127;-76
2022/03/10 02:25:24;;;;;;;44.70;23.30;;;;;;;-1.60;82.62;102381.53;5090578;28;20184;-76
2022/03/10 02:27:52;;;;;;;45.08;24.55;;;;;;;-1.63;83.10;102388.53;5090677;28;20158;-77
2022/03/10 02:30:21;;;;;;;47.45;23.90;;;;;;;-1.66;83.08;102392.03;5090527;28;20127;-76
2022/03/10 02:32:47;;;;;;;46.15;24.85;;;;;;;-1.67;83.05;102394.66;5090294;28;20048;-76
2022/03/10 02:35:14;;;;;;;51.75;25.25;;;;;;;-1.71;82.93;102388.63;5090379;28;20032;-76
2022/03/10 02:37:40;;;;;;;46.10;24.30;;;;;;;-1.72;83.14;102396.50;5090100;28;20040;-76
2022/03/10 02:40:06;;;;;;;53.40;25.05;;;;;;;-1.74;83.21;102391.28;5090313;28;20114;-75
2022/03/10 02:42:32;;;;;;;46.30;23.73;;;;;;;-1.78;83.25;102390.47;5071739;28;20494;-75
2022/03/10 02:44:57;;;;;;;49.90;24.05;;;;;;;-1.80;83.08;102394.00;5089104;28;20039;-75
2022/03/10 02:47:23;;;;;;;48.63;25.20;;;;;;;-1.83;83.21;102394.88;5071879;28;20438;-75
2022/03/10 02:49:48;;;;;;;45.53;24.75;;;;;;;-1.86;83.59;102388.88;5090324;28;20093;-75
2022/03/10 02:52:14;;;;;;;54.33;25.08;;;;;;;-1.88;83.81;102399.31;5090169;28;20181;-76
2022/03/10 02:54:39;;;;;;;44.85;24.08;;;;;;;-1.90;84.08;102398.47;5090203;28;20475;-75
2022/03/10 02:57:05;;;;;;;50.92;25.02;;;;;;;-1.92;83.69;102388.94;5072015;28;20159;-77
2022/03/10 02:59:30;;;;;;;42.05;22.88;;;;;;;-1.95;84.22;102392.44;5090284;28;20118;-76
2022/03/10 03:01:56;;;;;;;46.95;25.50;;;;;;;-1.96;84.04;102390.72;5090120;28;20105;-76
2022/03/10 03:04:22;;;;;;;48.08;23.92;;;;;;;-1.98;83.97;102392.50;5071642;28;20105;-76
2022/03/10 03:06:48;;;;;;;47.03;24.80;;;;;;;-2.00;84.58;102395.13;5090207;28;20059;-76
2022/03/10 03:09:13;;;;;;;50.55;25.17;;;;;;;-2.02;84.53;102388.19;5090064;28;20124;-75
2022/03/10 03:11:38;;;;;;;50.35;23.55;;;;;;;-2.02;84.65;102401.25;5071643;28;20065;-76
2022/03/10 03:14:04;;;;;;;46.80;23.83;;;;;;;-2.04;84.23;102397.81;5089935;28;20133;-75
2022/03/10 03:16:30;;;;;;;46.78;25.65;;;;;;;-2.06;84.45;102394.31;5090254;28;20513;-75
2022/03/10 03:18:56;;;;;;;48.05;25.35;;;;;;;-2.07;84.53;102409.13;5090592;28;20035;-76
2022/03/10 03:21:23;;;;;;;52.30;25.67;;;;;;;-2.08;84.58;102410.00;5089974;28;20036;-76
2022/03/10 03:23:49;;;;;;;50.72;25.55;;;;;;;-2.07;84.99;102390.00;5089720;28;20468;-76
2022/03/10 03:26:15;;;;;;;53.97;26.50;;;;;;;-2.09;85.06;102396.97;5089867;28;20043;-75
2022/03/10 03:28:42;;;;;;;50.63;25.65;;;;;;;-2.11;85.80;102402.22;5071532;28;20028;-76
2022/03/10 03:31:09;;;;;;;46.58;24.50;;;;;;;-2.13;85.43;102402.22;5090036;28;20020;-75
2022/03/10 03:33:35;;;;;;;46.17;23.73;;;;;;;-2.12;85.31;102413.53;5071170;28;20047;-75
2022/03/10 03:36:01;;;;;;;49.67;26.58;;;;;;;-2.13;85.48;102414.41;5089570;28;20123;-76
2022/03/10 03:38:27;;;;;;;47.08;25.33;;;;;;;-2.14;86.02;102417.91;5089631;28;20042;-76
2022/03/10 03:40:52;;;;;;;53.65;27.08;;;;;;;-2.16;86.33;102411.84;5071581;28;20056;-76
2022/03/10 03:43:17;;;;;;;46.63;24.25;;;;;;;-2.18;85.86;102411.88;5089847;28;20043;-77
2022/03/10 03:45:43;;;;;;;43.97;23.73;;;;;;;-2.20;85.70;102416.22;5089616;28;20032;-76
2022/03/10 03:48:08;;;;;;;51.55;24.85;;;;;;;-2.23;86.10;102424.09;5089702;28;20060;-77
2022/03/10 03:50:34;;;;;;;45.55;23.88;;;;;;;-2.25;86.38;102427.63;5071371;28;20040;-77
2022/03/10 03:53:00;;;;;;;53.50;25.80;;;;;;;-2.28;86.20;102427.63;5089477;28;20029;-77
2022/03/10 03:55:27;;;;;;;45.85;24.48;;;;;;;-2.32;86.40;102432.03;5089373;28;20074;-76
2022/03/10 03:57:52;;;;;;;49.60;23.80;;;;;;;-2.37;86.72;102429.47;5093126;28;20054;-78
2022/03/10 04:00:18;;;;;;;53.80;26.48;;;;;;;-2.39;86.49;102427.75;5093207;28;20413;-76
2022/03/10 04:02:45;;;;;;;46.95;24.20;;;;;;;-2.41;86.53;102432.13;5093369;28;20111;-76
2022/03/10 04:05:12;;;;;;;45.60;24.05;;;;;;;-2.44;86.54;102426.94;5093092;28;20036;-76
2022/03/10 04:07:38;;;;;;;43.70;24.10;;;;;;;-2.48;86.62;102431.31;5093347;28;20032;-76
2022/03/10 04:10:05;;;;;;;42.28;23.15;;;;;;;-2.52;86.09;102443.53;5093263;28;20049;-76
2022/03/10 04:12:32;;;;;;;50.05;25.27;;;;;;;-2.53;85.97;102441.78;5092979;28;20036;-76
2022/03/10 04:14:57;;;;;;;47.78;24.42;;;;;;;-2.54;86.48;102440.09;5074565;28;20032;-76
2022/03/10 04:17:23;;;;;;;53.67;25.73;;;;;;;-2.56;86.95;102436.59;5093130;28;20050;-76
2022/03/10 04:19:48;;;;;;;41.97;23.35;;;;;;;-2.58;86.43;102433.16;5093150;28;20028;-77
2022/03/10 04:22:14;;;;;;;49.35;24.17;;;;;;;-2.61;86.46;102438.41;5074437;28;20460;-76
2022/03/10 04:24:39;;;;;;;51.42;24.23;;;;;;;-2.62;86.22;102434.06;5092925;28;20039;-76
2022/03/10 04:27:05;;;;;;;45.97;24.40;;;;;;;-2.63;86.41;102436.69;5092550;28;20528;-76
2022/03/10 04:29:30;;;;;;;44.63;24.02;;;;;;;-2.66;86.67;102443.69;5092825;28;20034;-76
2022/03/10 04:31:55;;;;;;;50.83;24.45;;;;;;;-2.70;86.28;102441.97;5092744;28;20112;-77
2022/03/10 04:34:21;;;;;;;47.42;24.67;;;;;;;-2.71;86.35;102444.59;5093118;28;20059;-77
2022/03/10 04:36:46;;;;;;;51.15;25.38;;;;;;;-2.71;86.75;102449.81;5074153;28;20028;-77
2022/03/10 04:39:11;;;;;;;50.30;24.50;;;;;;;-2.72;86.74;102448.91;5073903;28;20073;-77
2022/03/10 04:41:37;;;;;;;48.00;23.63;;;;;;;-2.73;86.60;102443.72;5074387;28;20040;-78
2022/03/10 04:44:03;;;;;;;48.13;24.30;;;;;;;-2.75;86.55;102441.13;5092454;28;20032;-76
2022/03/10 04:46:29;;;;;;;45.83;24.33;;;;;;;-2.73;86.74;102443.72;5092408;28;20147;-75
2022/03/10 04:48:54;;;;;;;50.47;24.10;;;;;;;-2.76;86.37;102442.03;5092600;28;20035;-78
2022/03/10 04:51:20;;;;;;;46.30;23.55;;;;;;;-2.78;86.82;102446.38;5074554;28;20453;-77
2022/03/10 04:53:46;;;;;;;43.90;23.30;;;;;;;-2.78;86.22;102437.69;5093903;28;20397;-77
2022/03/10 04:56:12;;;;;;;51.70;24.17;;;;;;;-2.79;86.17;102438.56;5075143;28;20047;-75
2022/03/10 04:58:37;;;;;;;46.00;23.55;;;;;;;-2.81;86.72;102432.53;5074427;28;20089;-76
2022/03/10 05:01:02;;;;;;;44.08;24.75;;;;;;;-2.83;86.43;102432.53;5092446;28;20032;-76
2022/03/10 05:03:28;;;;;;;48.63;23.80;;;;;;;-2.85;86.33;102424.75;5092357;28;20036;-77
2022/03/10 05:05:53;;;;;;;43.00;23.77;;;;;;;-2.87;86.34;102426.47;5092075;28;20503;-77
2022/03/10 05:08:19;;;;;;;50.88;24.25;;;;;;;-2.88;86.35;102421.28;5091385;28;20035;-77
2022/03/10 05:10:44;;;;;;;49.63;24.45;;;;;;;-2.89;86.32;102424.78;5074165;28;20032;-76
2022/03/10 05:13:10;;;;;;;49.13;23.58;;;;;;;-2.92;86.66;102423.06;5092203;28;20111;-76
2022/03/10 05:15:35;;;;;;;47.55;24.40;;;;;;;-2.94;86.66;102423.94;5092043;28;20031;-77
2022/03/10 05:18:03;;;;;;;48.05;24.05;;;;;;;-2.96;86.61;102430.91;5092081;28;20475;-77
2022/03/10 05:20:30;;;;;;;52.33;25.08;;;;;;;-2.97;87.02;102431.78;5092494;28;20054;-77
2022/03/10 05:23:00;;;;;;;49.90;23.85;;;;;;;-3.00;87.12;102435.31;5091781;28;20049;-77
2022/03/10 05:25:35;;;;;;;44.50;23.48;;;;;;;-3.02;87.28;102444.84;5091810;28;20098;-77
2022/03/10 05:28:01;;;;;;;52.40;24.60;;;;;;;-3.05;87.17;102437.06;5092358;28;20032;-76
2022/03/10 05:30:27;;;;;;;44.28;23.50;;;;;;;-3.08;87.48;102442.28;5092224;28;20036;-77
2022/03/10 05:32:52;;;;;;;47.50;25.13;;;;;;;-3.11;86.91;102437.97;5091494;28;20044;-77
2022/03/10 05:35:18;;;;;;;44.72;24.13;;;;;;;-3.13;87.07;102437.13;5073371;28;20039;-78
2022/03/10 05:37:45;;;;;;;47.15;24.17;;;;;;;-3.15;87.29;102446.72;5091599;28;20106;-77
2022/03/10 05:40:14;;;;;;;49.03;24.10;;;;;;;-3.15;87.40;102440.59;5091840;28;20076;-77
2022/03/10 05:42:41;;;;;;;54.35;26.63;;;;;;;-3.18;87.53;102449.31;5073904;28;20058;-77
2022/03/10 05:45:08;;;;;;;50.47;24.85;;;;;;;-3.19;87.68;102445.00;5093587;28;20111;-75
2022/03/10 05:47:35;;;;;;;48.33;24.27;;;;;;;-3.20;87.63;102443.25;5092728;28;20050;-75
2022/03/10 05:50:03;;;;;;;48.88;25.23;;;;;;;-3.21;88.33;102438.91;5092232;28;20081;-77
2022/03/10 05:52:29;;;;;;;48.83;24.83;;;;;;;-3.21;88.21;102434.59;5073829;28;20031;-74
2022/03/10 05:54:54;;;;;;;48.85;25.23;;;;;;;-3.22;88.23;102440.66;5093725;28;20036;-78
2022/03/10 05:57:20;;;;;;;57.47;26.77;;;;;;;-3.22;88.90;102438.06;5091898;28;20024;-75
2022/03/10 05:59:45;;;;;;;48.88;26.55;;;;;;;-3.21;89.50;102437.19;5091040;28;20028;-78
2022/03/10 06:02:11;;;;;;;54.03;27.02;;;;;;;-3.20;89.63;102436.28;5091288;28;20028;-76
2022/03/10 06:04:36;;;;;;;60.22;28.25;;;;;;;-3.18;89.22;102436.28;5091234;28;20035;-77
2022/03/10 06:07:03;;;;;;;55.67;26.63;;;;;;;-3.16;89.11;102436.28;5073061;28;20032;-77
2022/03/10 06:09:28;;;;;;;47.35;25.60;;;;;;;-3.16;88.91;102431.06;5073121;28;20050;-78
2022/03/10 06:11:54;;;;;;;55.38;28.23;;;;;;;-3.14;88.81;102435.38;5091105;28;20460;-79
2022/03/10 06:14:19;;;;;;;62.13;31.25;;;;;;;-3.10;89.30;102438.84;5091506;28;20032;-77
2022/03/10 06:16:45;;;;;;;66.90;32.63;;;;;;;-3.06;89.12;102437.94;5072869;28;20083;-77
2022/03/10 06:19:10;;;;;;;57.88;30.20;;;;;;;-3.02;89.58;102434.44;5091000;28;20036;-81
2022/03/10 06:21:37;;;;;;;46.53;26.20;;;;;;;-2.98;90.31;102443.09;5091339;28;20226;-75
2022/03/10 06:24:03;;;;;;;58.40;30.23;;;;;;;-2.93;91.03;102439.56;5091390;28;20077;-75
2022/03/10 06:26:28;;;;;;;59.15;29.20;;;;;;;-2.88;91.29;102435.19;5072907;28;20362;-79
2022/03/10 06:28:53;;;;;;;60.20;28.10;;;;;;;-2.83;91.32;102429.94;5073282;28;20036;-78
2022/03/10 06:31:19;;;;;;;52.45;27.65;;;;;;;-2.77;91.26;102429.03;5056534;28;20036;-80
2022/03/10 06:33:45;;;;;;;59.10;30.73;;;;;;;-2.74;91.19;102429.00;5056272;28;20087;-79
2022/03/10 06:36:11;;;;;;;55.75;28.80;;;;;;;-2.70;91.06;102439.38;5091363;28;20127;-81
2022/03/10 06:38:36;;;;;;;55.72;28.45;;;;;;;-2.63;91.31;102441.91;5073041;28;20035;-82
2022/03/10 06:41:02;;;;;;;52.90;28.20;;;;;;;-2.57;91.76;102444.44;5073808;28;20019;-82
2022/03/10 06:43:28;;;;;;;57.08;29.75;;;;;;;-2.52;91.89;102440.06;5091953;28;20073;-81
2022/03/10 06:45:53;;;;;;;52.78;27.85;;;;;;;-2.46;91.86;102441.72;5091453;28;20039;-82
2022/03/10 06:48:20;;;;;;;51.03;27.35;;;;;;;-2.39;91.83;102440.78;5073164;28;20408;-78
2022/03/10 06:50:45;;;;;;;53.38;28.40;;;;;;;-2.31;91.77;102446.78;5091313;28;20032;-81
2022/03/10 06:53:11;;;;;;;50.97;28.23;;;;;;;-2.21;92.24;102444.94;5073117;28;20035;-81
2022/03/10 06:55:37;;;;;;;46.35;27.02;;;;;;;-2.11;92.05;102453.53;5073278;28;20120;-85
2022/03/10 06:58:02;;;;;;;51.97;27.63;;;;;;;-2.02;92.16;102451.66;5073152;28;20091;-84
2022/03/10 07:00:28;;;;;;;52.63;27.25;;;;;;;-1.92;92.61;102455.03;5091348;28;20043;-87
2022/03/10 07:02:53;;;;;;;49.10;26.58;;;;;;;-1.81;92.67;102447.94;5092088;28;20071;-88
2022/03/10 07:05:19;;;;;;;49.08;27.60;;;;;;;-1.68;92.62;102451.22;5074329;28;20097;-88
2022/03/10 07:07:44;;;;;;;59.70;31.75;;;;;;;-1.52;92.78;102459.72;5073069;28;20082;-84
2022/03/10 07:10:12;;;;;;;59.40;29.67;;;;;;;-1.38;93.22;102459.50;5073969;28;20360;-84
2022/03/10 07:12:39;;;;;;;52.08;29.27;;;;;;;-1.19;93.62;102459.25;5091013;28;20074;-77
2022/03/10 07:15:07;;;;;;;56.30;30.55;;;;;;;-1.02;93.60;102467.66;5090340;28;20028;-79
2022/03/10 07:17:32;;;;;;;54.78;29.08;;;;;;;-0.86;93.63;102460.47;5091486;28;20464;-82
2022/03/10 07:19:58;;;;;;;47.70;27.92;;;;;;;-0.70;93.86;102466.28;5073189;28;20040;-82
2022/03/10 07:22:23;;;;;;;52.88;28.65;;;;;;;-0.52;93.63;102470.34;5073807;28;20586;-83
2022/03/10 07:24:49;;;;;;;55.63;29.42;;;;;;;-0.36;93.59;102469.16;5056494;28;20073;-82
2022/03/10 07:27:14;;;;;;;50.47;28.08;;;;;;;-0.16;93.11;102467.91;5072910;28;20040;-80
2022/03/10 07:29:40;;;;;;;49.22;28.65;;;;;;;0.02;92.91;102471.91;5091110;28;20028;-83
2022/03/10 07:32:06;;;;;;;49.78;27.88;;;;;;;0.19;92.76;102474.19;5075246;28;20447;-82
2022/03/10 07:34:31;;;;;;;53.03;28.52;;;;;;;0.37;92.13;102477.31;5076767;28;20111;-81
2022/03/10 07:36:57;;;;;;;57.28;28.77;;;;;;;0.52;91.99;102472.63;5076324;28;20111;-80
2022/03/10 07:39:22;;;;;;;48.50;28.50;;;;;;;0.71;91.31;102464.31;5076504;28;20032;-83
2022/03/10 07:41:47;;;;;;;50.63;27.48;;;;;;;0.87;90.53;102468.31;5076739;28;20036;-82
2022/03/10 07:44:13;;;;;;;51.58;27.17;;;;;;;1.08;89.71;102470.47;5095180;28;20464;-81
2022/03/10 07:46:39;;;;;;;48.83;26.80;;;;;;;1.27;89.57;102458.59;5076747;28;20032;-82
2022/03/10 07:49:04;;;;;;;46.15;27.20;;;;;;;1.47;89.89;102467.72;5076997;28;20544;-82
2022/03/10 07:51:30;;;;;;;46.75;27.17;;;;;;;1.60;88.42;102466.50;5095106;28;20039;-81
2022/03/10 07:53:55;;;;;;;51.50;27.85;;;;;;;1.84;89.37;102466.72;5094525;28;20059;-80
2022/03/10 07:56:21;;;;;;;48.85;26.90;;;;;;;2.05;85.72;102466.09;5059645;28;20032;-80
2022/03/10 07:58:46;;;;;;;46.47;24.90;;;;;;;2.30;82.81;102462.78;5095305;28;20127;-82
2022/03/10 08:01:11;;;;;;;41.63;24.83;;;;;;;2.52;79.77;102470.00;5095074;28;20042;-81
2022/03/10 08:03:38;;;;;;;45.50;24.80;;;;;;;2.71;78.69;102473.78;5096938;28;20054;-81
2022/03/10 08:06:04;;;;;;;44.63;25.88;;;;;;;2.87;78.86;102468.91;5096621;28;20388;-81
2022/03/10 08:08:30;;;;;;;45.40;24.80;;;;;;;3.08;79.13;102477.00;5096276;28;20047;-84
2022/03/10 08:10:55;;;;;;;51.95;27.02;;;;;;;3.26;78.64;102472.91;5061244;28;20028;-83
2022/03/10 08:13:25;;;;;;;44.08;25.42;;;;;;;3.47;76.60;102471.31;5094108;28;20472;-85
2022/03/10 08:15:51;;;;;;;39.45;24.23;;;;;;;3.70;75.23;102470.47;5094626;28;20086;-82
2022/03/10 08:18:16;;;;;;;42.08;25.13;;;;;;;3.94;73.84;102466.13;5075677;28;20036;-82
2022/03/10 08:20:41;;;;;;;50.05;24.25;;;;;;;4.15;71.83;102467.09;5093570;28;20032;-76
2022/03/10 08:23:07;;;;;;;45.53;24.20;;;;;;;4.44;70.71;102462.50;5093252;28;20048;-76
2022/03/10 08:25:34;;;;;;;54.83;25.75;;;;;;;4.69;69.55;102458.91;5093230;28;20054;-77
2022/03/10 08:28:01;;;;;;;42.10;25.02;;;;;;;5.00;69.66;102452.38;5093030;28;20059;-77
2022/03/10 08:30:26;;;;;;;39.25;24.00;;;;;;;5.33;67.91;102444.81;5093302;28;20120;-84
2022/03/10 08:32:52;;;;;;;41.83;25.73;;;;;;;5.67;66.83;102451.25;5074862;28;20051;-82
2022/03/10 08:35:17;;;;;;;48.88;25.23;;;;;;;6.00;64.74;102454.22;5092925;28;20104;-78
2022/03/10 08:37:43;;;;;;;42.78;24.00;;;;;;;6.28;63.37;102450.28;5093517;28;20032;-78
2022/03/10 08:40:10;;;;;;;39.65;23.92;;;;;;;6.53;62.39;102446.50;5092813;28;20058;-77
2022/03/10 08:42:35;;;;;;;40.97;24.27;;;;;;;6.92;61.20;102448.13;5091914;28;20369;-79
2022/03/10 08:45:01;;;;;;;42.72;24.85;;;;;;;7.41;59.23;102445.66;5092817;28;20032;-78
2022/03/10 08:47:28;;;;;;;45.75;24.65;;;;;;;7.59;57.94;102440.34;5093136;28;20483;-78
2022/03/10 08:49:54;;;;;;;42.80;24.17;;;;;;;7.61;57.53;102437.59;5093459;28;20039;-80
2022/03/10 08:52:19;;;;;;;38.15;23.42;;;;;;;7.61;57.76;102442.91;5092906;28;20368;-82
2022/03/10 08:54:45;;;;;;;37.88;24.17;;;;;;;7.50;57.31;102440.81;5092750;28;20330;-80
2022/03/10 08:57:10;;;;;;;44.10;24.13;;;;;;;7.58;58.16;102436.84;5092839;28;20035;-82
2022/03/10 08:59:36;;;;;;;40.63;23.83;;;;;;;8.07;56.90;102438.63;5093224;28;20032;-79
2022/03/10 09:02:01;;;;;;;39.25;23.48;;;;;;;8.52;54.27;102443.31;5092940;28;20031;-84
2022/03/10 09:04:29;;;;;;;43.03;23.63;;;;;;;9.19;52.70;102435.91;5094494;28;20093;-83
2022/03/10 09:06:54;;;;;;;41.80;24.30;;;;;;;10.36;50.14;102438.50;5098586;28;20090;-85
2022/03/10 09:09:21;;;;;;;42.60;25.10;;;;;;;11.47;46.75;102433.81;5097264;28;20365;-87
2022/03/10 09:11:47;;;;;;;40.10;23.92;;;;;;;12.21;44.27;102433.13;5075333;28;20162;-84
2022/03/10 09:14:12;;;;;;;36.20;24.35;;;;;;;13.56;41.10;102433.69;5058329;28;20460;-83
2022/03/10 09:16:38;;;;;;;40.45;24.55;;;;;;;14.05;39.84;102428.13;5075929;28;20361;-82
2022/03/10 09:19:04;;;;;;;38.00;25.08;;;;;;;14.66;38.32;102424.97;5095161;28;20024;-85
2022/03/10 09:21:29;;;;;;;36.85;23.38;;;;;;;15.07;37.91;102423.31;5093776;28;20093;-79
2022/03/10 09:23:55;;;;;;;36.97;24.30;;;;;;;14.77;39.14;102414.19;5074160;28;20368;-78
2022/03/10 09:26:20;;;;;;;37.70;24.52;;;;;;;15.65;36.90;102420.13;5092077;28;20044;-79
2022/03/10 09:28:46;;;;;;;37.80;23.60;;;;;;;16.11;35.75;102409.88;5091789;28;20032;-79
2022/03/10 09:31:12;;;;;;;37.22;23.63;;;;;;;16.73;34.95;102409.66;5091979;28;20032;-75
2022/03/10 09:33:41;;;;;;;37.70;24.67;;;;;;;15.93;35.48;102412.38;5092121;28;20067;-78
2022/03/10 09:36:07;;;;;;;35.85;24.08;;;;;;;16.65;34.26;102412.22;5091803;28;20424;-79
2022/03/10 09:38:32;;;;;;;38.45;24.70;;;;;;;16.43;34.93;102416.00;5073511;28;20059;-86
2022/03/10 09:40:58;;;;;;;40.97;24.55;;;;;;;16.75;33.85;102413.06;5092548;28;20067;-81
2022/03/10 09:43:28;;;;;;;38.25;23.77;;;;;;;17.10;33.47;102415.19;5092701;28;20036;-84
2022/03/10 09:45:54;;;;;;;35.58;25.15;;;;;;;17.40;33.00;102410.59;5092775;28;20035;-83
2022/03/10 09:48:19;;;;;;;40.35;24.38;;;;;;;17.71;32.54;102404.13;5092916;28;20111;-82
2022/03/10 09:50:49;;;;;;;36.35;25.15;;;;;;;17.61;32.39;102406.84;5092498;28;20392;-83
2022/03/10 09:53:15;;;;;;;34.70;23.55;;;;;;;17.04;33.63;102412.22;5074099;28;20032;-82
2022/03/10 09:55:41;;;;;;;40.67;25.17;;;;;;;17.93;32.50;102397.53;5073340;28;20028;-79
2022/03/10 09:58:08;;;;;;;38.72;23.45;;;;;;;18.68;31.79;102397.31;5073610;28;20032;-78
2022/03/10 10:00:34;;;;;;;34.35;24.27;;;;;;;18.70;31.02;102399.84;5091734;28;20036;-79
2022/03/10 10:02:59;;;;;;;37.33;25.10;;;;;;;18.33;30.95;102399.84;5091782;28;20337;-81
2022/03/10 10:05:29;;;;;;;41.53;24.50;;;;;;;18.34;31.08;102395.28;5091686;28;20028;-80
2022/03/10 10:08:09;;;;;;;37.15;24.73;;;;;;;17.63;32.77;102399.50;5091723;28;20040;-79
2022/03/10 10:10:41;;;;;;;39.47;24.08;;;;;;;18.77;31.12;102404.44;5091784;28;20517;-81
2022/03/10 10:13:06;;;;;;;32.85;24.00;;;;;;;19.14;30.30;102395.34;5091523;28;20337;-80
2022/03/10 10:15:40;;;;;;;35.15;24.67;;;;;;;19.45;29.69;102391.28;5073118;28;20039;-79
2022/03/10 10:18:13;;;;;;;35.90;23.90;;;;;;;18.94;30.94;102388.44;5091778;28;20044;-82
2022/03/10 10:20:47;;;;;;;39.53;24.20;;;;;;;19.35;30.70;102380.63;5091760;28;20031;-83
2022/03/10 10:23:17;;;;;;;37.33;23.33;;;;;;;19.54;29.97;102383.09;5073484;28;20052;-81
2022/03/10 10:26:10;;;;;;;36.00;23.02;;;;;;;20.02;29.85;102377.22;5094786;28;20028;-79
2022/03/10 10:28:38;;;;;;;30.77;22.08;;;;;;;20.39;28.77;102381.34;5090056;28;20048;-82
2022/03/10 10:31:07;;;;;;;39.35;23.38;;;;;;;20.55;28.51;102383.25;5092904;28;20433;-80
2022/03/10 10:33:36;;;;;;;34.25;23.23;;;;;;;20.77;28.80;102384.47;5093685;28;20060;-83
2022/03/10 10:36:15;;;;;;;29.70;22.40;;;;;;;21.01;27.94;102378.19;5093924;28;20036;-78
2022/03/10 10:38:43;;;;;;;35.90;22.42;;;;;;;20.55;27.84;102383.25;5092445;28;20157;-82
2022/03/10 10:41:23;;;;;;;34.13;23.33;;;;;;;20.12;29.79;102377.09;5090932;28;20055;-79
2022/03/10 10:43:52;;;;;;;30.98;22.45;;;;;;;20.14;29.92;102377.75;5091022;28;20028;-81
2022/03/10 10:46:32;;;;;;;38.65;22.33;;;;;;;20.16;28.87;102378.47;5072062;28;20024;-81
2022/03/10 10:49:01;;;;;;;31.48;21.58;;;;;;;20.02;29.06;102375.38;5090825;28;20536;-80
2022/03/10 10:51:31;;;;;;;30.30;20.98;;;;;;;20.59;28.87;102371.91;5090410;28;20028;-79
2022/03/10 10:53:58;;;;;;;39.20;23.55;;;;;;;20.17;29.46;102369.31;5072375;28;20064;-79
2022/03/10 10:56:23;;;;;;;34.10;22.73;;;;;;;20.02;29.88;102366.41;5072675;28;20028;-81
2022/03/10 10:58:50;;;;;;;34.65;23.33;;;;;;;20.36;29.19;102369.03;5090738;28;20036;-79
2022/03/10 11:01:36;;;;;;;34.33;22.92;;;;;;;20.59;28.37;102362.97;5090674;28;20028;-78
2022/03/10 11:04:04;;;;;;;36.45;22.88;;;;;;;19.48;29.91;102364.84;5090707;28;20035;-79
2022/03/10 11:06:31;;;;;;;35.55;21.95;;;;;;;19.24;31.50;102354.75;5089593;28;20039;-79
2022/03/10 11:08:56;;;;;;;35.92;22.60;;;;;;;19.21;30.67;102349.66;5090747;28;20118;-79
2022/03/10 11:11:23;;;;;;;35.90;21.45;;;;;;;19.08;31.20;102344.72;5090118;28;20520;-78
2022/03/10 11:13:48;;;;;;;29.73;22.50;;;;;;;18.11;32.75;102349.09;5071390;28;20444;-79